Aviation Digital Data Service (ADDS)

Output produced by METARs form (1256 UTC 21 February 2018)
found at http://www.aviationweather.gov/adds/metars/
 
GBYD 211200Z 31008KT CAVOK 28/12 Q1010
TAF GBYD 201130Z 2012/2118 36007KT CAVOK